Williamsburg, New Mexico
Current Conditions -  °F | °C
As of 10:53 AM on Friday 28 Nov 2014 (Local Time) from KTCS Reporting Station
Clear Clear  
Wind Chill: 55°   Ceiling: Unl
Heat Index: 55°   Visibility: 10mi
Dew Point: 22°   Wind: 6mph
Humidity: 28%   Direction: 130°SE
Pressure: 30.25"   Gusts: NA
Location:  33.12°N, 107.29°W
Report Text: KTCS 281753Z AUTO 13005KT 10SM CLR 13/M06 A3025 RMK AO2 SLP210 T01281056 10128 20006 58006 TSNO
Loading
Personal Weather Stations






























Interactive Weather Map New forecast layout! Learn more

10-Day Weather Forecast

Advertisements
Track Severe Weather on mobile